sensor_id;sensor_type;location;lat;lon;timestamp;P1;durP1;ratioP1;P2;durP2;ratioP2
37205;SDS011;23099;42.636;23.198;2023-08-30T04:34:48;9.23;;;3.50;;
37205;SDS011;23099;42.636;23.198;2023-08-30T04:37:15;11.00;;;3.55;;
37205;SDS011;23099;42.636;23.198;2023-08-30T04:39:41;9.35;;;4.22;;
37205;SDS011;23099;42.636;23.198;2023-08-30T04:42:08;11.43;;;4.82;;
37205;SDS011;23099;42.636;23.198;2023-08-30T04:44:35;16.23;;;5.63;;
37205;SDS011;23099;42.636;23.198;2023-08-30T04:47:02;15.02;;;6.45;;
37205;SDS011;23099;42.636;23.198;2023-08-30T04:49:28;14.45;;;5.88;;
37205;SDS011;23099;42.636;23.198;2023-08-30T04:51:56;14.77;;;5.53;;
37205;SDS011;23099;42.636;23.198;2023-08-30T04:54:23;11.80;;;5.10;;
37205;SDS011;23099;42.636;23.198;2023-08-30T04:56:50;13.57;;;6.10;;
37205;SDS011;23099;42.636;23.198;2023-08-30T04:59:17;12.60;;;6.07;;
37205;SDS011;23099;42.636;23.198;2023-08-30T05:01:43;17.50;;;6.32;;
37205;SDS011;23099;42.636;23.198;2023-08-30T05:04:10;14.30;;;5.60;;
37205;SDS011;23099;42.636;23.198;2023-08-30T05:06:37;13.35;;;6.35;;
37205;SDS011;23099;42.636;23.198;2023-08-30T05:09:05;13.52;;;5.50;;
37205;SDS011;23099;42.636;23.198;2023-08-30T05:11:32;12.27;;;6.30;;
37205;SDS011;23099;42.636;23.198;2023-08-30T05:13:58;12.68;;;5.80;;
37205;SDS011;23099;42.636;23.198;2023-08-30T05:16:25;14.77;;;5.60;;
37205;SDS011;23099;42.636;23.198;2023-08-30T05:18:52;16.52;;;5.85;;
37205;SDS011;23099;42.636;23.198;2023-08-30T05:21:18;11.95;;;5.78;;
37205;SDS011;23099;42.636;23.198;2023-08-30T05:23:45;12.52;;;5.63;;
37205;SDS011;23099;42.636;23.198;2023-08-30T05:26:13;12.18;;;5.35;;
37205;SDS011;23099;42.636;23.198;2023-08-30T05:28:41;13.68;;;5.90;;
37205;SDS011;23099;42.636;23.198;2023-08-30T05:31:08;13.95;;;5.20;;
37205;SDS011;23099;42.636;23.198;2023-08-30T05:33:35;14.30;;;5.72;;
37205;SDS011;23099;42.636;23.198;2023-08-30T05:36:02;10.60;;;4.90;;
37205;SDS011;23099;42.636;23.198;2023-08-30T05:38:28;10.55;;;4.43;;
37205;SDS011;23099;42.636;23.198;2023-08-30T05:40:55;13.55;;;4.78;;
37205;SDS011;23099;42.636;23.198;2023-08-30T05:43:23;10.75;;;5.05;;
37205;SDS011;23099;42.636;23.198;2023-08-30T05:45:50;15.63;;;5.97;;
37205;SDS011;23099;42.636;23.198;2023-08-30T05:48:16;16.25;;;6.13;;
37205;SDS011;23099;42.636;23.198;2023-08-30T05:50:43;12.75;;;5.57;;
37205;SDS011;23099;42.636;23.198;2023-08-30T05:53:10;12.38;;;5.07;;
37205;SDS011;23099;42.636;23.198;2023-08-30T05:55:37;18.25;;;6.20;;
37205;SDS011;23099;42.636;23.198;2023-08-30T05:58:04;13.48;;;5.72;;
37205;SDS011;23099;42.636;23.198;2023-08-30T06:00:32;15.15;;;6.53;;
37205;SDS011;23099;42.636;23.198;2023-08-30T06:02:58;13.20;;;5.47;;
37205;SDS011;23099;42.636;23.198;2023-08-30T06:05:25;12.77;;;5.95;;
37205;SDS011;23099;42.636;23.198;2023-08-30T06:07:52;13.82;;;5.75;;
37205;SDS011;23099;42.636;23.198;2023-08-30T06:10:19;12.82;;;5.30;;
37205;SDS011;23099;42.636;23.198;2023-08-30T06:12:45;13.80;;;5.57;;
37205;SDS011;23099;42.636;23.198;2023-08-30T06:15:12;12.23;;;5.18;;
37205;SDS011;23099;42.636;23.198;2023-08-30T06:17:40;9.88;;;4.40;;
37205;SDS011;23099;42.636;23.198;2023-08-30T06:20:07;10.23;;;4.93;;
37205;SDS011;23099;42.636;23.198;2023-08-30T06:22:34;11.13;;;4.90;;
37205;SDS011;23099;42.636;23.198;2023-08-30T06:25:01;9.20;;;3.90;;
37205;SDS011;23099;42.636;23.198;2023-08-30T06:29:56;10.43;;;3.53;;
37205;SDS011;23099;42.636;23.198;2023-08-30T06:32:22;9.90;;;3.95;;
37205;SDS011;23099;42.636;23.198;2023-08-30T06:34:50;10.02;;;3.72;;
37205;SDS011;23099;42.636;23.198;2023-08-30T06:37:17;9.13;;;4.13;;
37205;SDS011;23099;42.636;23.198;2023-08-30T06:39:44;11.40;;;4.03;;
37205;SDS011;23099;42.636;23.198;2023-08-30T06:42:10;8.80;;;3.65;;
37205;SDS011;23099;42.636;23.198;2023-08-30T06:44:37;12.18;;;3.65;;
37205;SDS011;23099;42.636;23.198;2023-08-30T06:49:32;10.65;;;3.88;;
37205;SDS011;23099;42.636;23.198;2023-08-30T06:52:00;8.85;;;3.70;;
37205;SDS011;23099;42.636;23.198;2023-08-30T06:54:28;8.38;;;3.72;;
37205;SDS011;23099;42.636;23.198;2023-08-30T06:56:56;8.52;;;3.58;;
37205;SDS011;23099;42.636;23.198;2023-08-30T07:01:51;12.07;;;3.30;;
37205;SDS011;23099;42.636;23.198;2023-08-30T07:04:18;7.95;;;3.67;;
37205;SDS011;23099;42.636;23.198;2023-08-30T07:06:44;12.05;;;3.90;;
37205;SDS011;23099;42.636;23.198;2023-08-30T07:09:12;10.40;;;3.60;;
37205;SDS011;23099;42.636;23.198;2023-08-30T07:11:39;8.25;;;3.65;;
37205;SDS011;23099;42.636;23.198;2023-08-30T07:14:09;10.07;;;2.75;;
37205;SDS011;23099;42.636;23.198;2023-08-30T07:16:35;12.07;;;3.15;;
37205;SDS011;23099;42.636;23.198;2023-08-30T07:19:02;9.77;;;2.90;;
37205;SDS011;23099;42.636;23.198;2023-08-30T07:21:29;9.07;;;2.80;;
37205;SDS011;23099;42.636;23.198;2023-08-30T07:23:56;8.68;;;2.67;;
37205;SDS011;23099;42.636;23.198;2023-08-30T07:26:24;8.68;;;2.83;;
37205;SDS011;23099;42.636;23.198;2023-08-30T07:28:51;8.68;;;2.50;;
37205;SDS011;23099;42.636;23.198;2023-08-30T07:31:17;6.78;;;2.78;;
37205;SDS011;23099;42.636;23.198;2023-08-30T07:33:44;8.18;;;3.20;;
37205;SDS011;23099;42.636;23.198;2023-08-30T07:36:11;10.60;;;3.45;;
37205;SDS011;23099;42.636;23.198;2023-08-30T07:38:38;10.18;;;3.00;;
37205;SDS011;23099;42.636;23.198;2023-08-30T07:41:05;10.65;;;2.97;;
37205;SDS011;23099;42.636;23.198;2023-08-30T07:43:33;6.70;;;2.90;;
37205;SDS011;23099;42.636;23.198;2023-08-30T07:45:59;10.52;;;3.53;;
37205;SDS011;23099;42.636;23.198;2023-08-30T07:48:26;8.65;;;2.78;;
37205;SDS011;23099;42.636;23.198;2023-08-30T07:50:53;16.02;;;3.40;;
37205;SDS011;23099;42.636;23.198;2023-08-30T07:53:19;7.90;;;2.97;;
37205;SDS011;23099;42.636;23.198;2023-08-30T07:55:47;7.47;;;2.65;;
37205;SDS011;23099;42.636;23.198;2023-08-30T07:58:15;8.40;;;2.78;;
37205;SDS011;23099;42.636;23.198;2023-08-30T08:00:43;8.85;;;2.47;;
37205;SDS011;23099;42.636;23.198;2023-08-30T08:03:10;10.75;;;2.58;;
37205;SDS011;23099;42.636;23.198;2023-08-30T08:05:37;9.13;;;2.40;;
37205;SDS011;23099;42.636;23.198;2023-08-30T08:08:03;6.68;;;2.35;;
37205;SDS011;23099;42.636;23.198;2023-08-30T08:10:31;7.28;;;2.80;;
37205;SDS011;23099;42.636;23.198;2023-08-30T08:12:58;7.20;;;2.40;;
37205;SDS011;23099;42.636;23.198;2023-08-30T08:15:25;7.70;;;2.33;;
37205;SDS011;23099;42.636;23.198;2023-08-30T08:17:53;8.45;;;2.40;;
37205;SDS011;23099;42.636;23.198;2023-08-30T08:20:20;8.80;;;2.50;;
37205;SDS011;23099;42.636;23.198;2023-08-30T08:22:46;7.72;;;2.50;;
37205;SDS011;23099;42.636;23.198;2023-08-30T08:25:13;7.47;;;2.35;;
37205;SDS011;23099;42.636;23.198;2023-08-30T08:27:41;8.32;;;2.25;;
37205;SDS011;23099;42.636;23.198;2023-08-30T08:30:08;9.65;;;2.45;;
37205;SDS011;23099;42.636;23.198;2023-08-30T08:35:04;8.68;;;2.30;;
37205;SDS011;23099;42.636;23.198;2023-08-30T08:37:31;9.45;;;2.78;;
37205;SDS011;23099;42.636;23.198;2023-08-30T08:39:58;10.57;;;2.60;;
37205;SDS011;23099;42.636;23.198;2023-08-30T08:42:25;7.03;;;2.50;;
37205;SDS011;23099;42.636;23.198;2023-08-30T08:47:20;9.05;;;2.67;;
37205;SDS011;23099;42.636;23.198;2023-08-30T08:49:47;9.40;;;3.35;;
37205;SDS011;23099;42.636;23.198;2023-08-30T08:52:16;8.60;;;3.35;;
37205;SDS011;23099;42.636;23.198;2023-08-30T08:54:43;9.50;;;3.33;;
37205;SDS011;23099;42.636;23.198;2023-08-30T08:57:10;11.90;;;3.50;;
37205;SDS011;23099;42.636;23.198;2023-08-30T08:59:37;9.25;;;3.58;;
37205;SDS011;23099;42.636;23.198;2023-08-30T09:02:04;8.40;;;3.10;;
37205;SDS011;23099;42.636;23.198;2023-08-30T09:04:31;11.00;;;3.42;;
37205;SDS011;23099;42.636;23.198;2023-08-30T09:06:58;15.65;;;4.43;;
37205;SDS011;23099;42.636;23.198;2023-08-30T09:09:26;10.90;;;3.60;;
37205;SDS011;23099;42.636;23.198;2023-08-30T09:11:53;8.95;;;3.40;;
37205;SDS011;23099;42.636;23.198;2023-08-30T09:14:20;9.48;;;3.55;;
37205;SDS011;23099;42.636;23.198;2023-08-30T09:16:56;10.75;;;3.78;;
37205;SDS011;23099;42.636;23.198;2023-08-30T09:19:23;10.35;;;3.60;;
37205;SDS011;23099;42.636;23.198;2023-08-30T09:21:50;8.32;;;3.13;;
37205;SDS011;23099;42.636;23.198;2023-08-30T09:24:17;8.80;;;3.45;;
37205;SDS011;23099;42.636;23.198;2023-08-30T09:26:48;8.18;;;3.58;;
37205;SDS011;23099;42.636;23.198;2023-08-30T09:29:16;8.32;;;3.53;;
37205;SDS011;23099;42.636;23.198;2023-08-30T09:31:43;10.25;;;4.28;;
37205;SDS011;23099;42.636;23.198;2023-08-30T09:34:10;9.32;;;3.67;;
37205;SDS011;23099;42.636;23.198;2023-08-30T09:36:37;8.77;;;3.70;;
37205;SDS011;23099;42.636;23.198;2023-08-30T09:39:05;11.27;;;4.10;;
37205;SDS011;23099;42.636;23.198;2023-08-30T09:41:34;8.80;;;3.55;;
37205;SDS011;23099;42.636;23.198;2023-08-30T09:44:07;10.07;;;3.63;;
37205;SDS011;23099;42.636;23.198;2023-08-30T09:46:44;9.55;;;3.97;;
37205;SDS011;23099;42.636;23.198;2023-08-30T09:49:12;11.25;;;3.50;;
37205;SDS011;23099;42.636;23.198;2023-08-30T09:51:39;10.75;;;3.65;;
37205;SDS011;23099;42.636;23.198;2023-08-30T09:54:11;11.82;;;4.05;;
37205;SDS011;23099;42.636;23.198;2023-08-30T09:56:41;8.07;;;3.85;;
37205;SDS011;23099;42.636;23.198;2023-08-30T09:59:10;11.90;;;3.17;;
37205;SDS011;23099;42.636;23.198;2023-08-30T10:01:38;10.48;;;2.78;;
37205;SDS011;23099;42.636;23.198;2023-08-30T10:04:05;8.30;;;3.28;;
37205;SDS011;23099;42.636;23.198;2023-08-30T10:06:34;8.50;;;3.13;;
37205;SDS011;23099;42.636;23.198;2023-08-30T10:09:02;8.18;;;3.33;;
37205;SDS011;23099;42.636;23.198;2023-08-30T10:13:58;9.20;;;3.28;;
37205;SDS011;23099;42.636;23.198;2023-08-30T10:16:27;11.13;;;3.38;;
37205;SDS011;23099;42.636;23.198;2023-08-30T10:18:59;8.65;;;3.17;;
37205;SDS011;23099;42.636;23.198;2023-08-30T10:21:30;11.52;;;3.30;;
37205;SDS011;23099;42.636;23.198;2023-08-30T10:23:58;8.45;;;3.25;;
37205;SDS011;23099;42.636;23.198;2023-08-30T10:26:27;11.48;;;2.80;;
37205;SDS011;23099;42.636;23.198;2023-08-30T10:28:57;8.63;;;3.17;;
37205;SDS011;23099;42.636;23.198;2023-08-30T10:31:28;7.75;;;2.75;;
37205;SDS011;23099;42.636;23.198;2023-08-30T10:33:54;10.95;;;3.40;;
37205;SDS011;23099;42.636;23.198;2023-08-30T10:36:22;9.77;;;3.50;;
37205;SDS011;23099;42.636;23.198;2023-08-30T10:38:49;9.57;;;3.50;;
37205;SDS011;23099;42.636;23.198;2023-08-30T10:41:20;9.93;;;3.78;;
37205;SDS011;23099;42.636;23.198;2023-08-30T10:43:50;18.30;;;4.25;;
37205;SDS011;23099;42.636;23.198;2023-08-30T10:46:30;9.00;;;3.45;;
37205;SDS011;23099;42.636;23.198;2023-08-30T10:49:07;9.65;;;3.42;;
37205;SDS011;23099;42.636;23.198;2023-08-30T10:54:09;8.15;;;3.90;;
37205;SDS011;23099;42.636;23.198;2023-08-30T10:56:45;8.45;;;3.03;;
37205;SDS011;23099;42.636;23.198;2023-08-30T10:59:16;25.33;;;3.90;;
37205;SDS011;23099;42.636;23.198;2023-08-30T11:01:46;13.85;;;3.67;;
37205;SDS011;23099;42.636;23.198;2023-08-30T11:04:13;8.95;;;3.20;;
37205;SDS011;23099;42.636;23.198;2023-08-30T11:06:42;9.85;;;3.63;;
37205;SDS011;23099;42.636;23.198;2023-08-30T11:09:10;7.28;;;2.60;;
37205;SDS011;23099;42.636;23.198;2023-08-30T11:11:39;10.07;;;2.72;;
37205;SDS011;23099;42.636;23.198;2023-08-30T11:14:06;7.67;;;2.27;;
37205;SDS011;23099;42.636;23.198;2023-08-30T11:16:33;9.85;;;2.63;;
37205;SDS011;23099;42.636;23.198;2023-08-30T11:19:02;6.60;;;2.30;;
37205;SDS011;23099;42.636;23.198;2023-08-30T11:21:29;6.78;;;2.50;;
37205;SDS011;23099;42.636;23.198;2023-08-30T11:23:57;5.50;;;2.30;;
37205;SDS011;23099;42.636;23.198;2023-08-30T11:26:24;7.38;;;2.55;;
37205;SDS011;23099;42.636;23.198;2023-08-30T11:28:50;5.80;;;2.58;;
37205;SDS011;23099;42.636;23.198;2023-08-30T11:31:18;6.97;;;2.60;;
37205;SDS011;23099;42.636;23.198;2023-08-30T11:33:51;7.20;;;2.60;;
37205;SDS011;23099;42.636;23.198;2023-08-30T11:36:19;8.00;;;2.97;;
37205;SDS011;23099;42.636;23.198;2023-08-30T11:38:47;7.55;;;2.70;;
37205;SDS011;23099;42.636;23.198;2023-08-30T11:41:14;7.30;;;2.90;;
37205;SDS011;23099;42.636;23.198;2023-08-30T11:43:41;8.60;;;2.63;;
37205;SDS011;23099;42.636;23.198;2023-08-30T11:46:07;5.82;;;2.63;;
37205;SDS011;23099;42.636;23.198;2023-08-30T11:48:34;6.67;;;2.60;;
37205;SDS011;23099;42.636;23.198;2023-08-30T11:51:01;7.70;;;3.30;;
37205;SDS011;23099;42.636;23.198;2023-08-30T11:53:30;11.13;;;3.10;;
37205;SDS011;23099;42.636;23.198;2023-08-30T11:55:58;7.43;;;3.03;;
37205;SDS011;23099;42.636;23.198;2023-08-30T11:58:24;9.88;;;2.92;;
37205;SDS011;23099;42.636;23.198;2023-08-30T12:00:51;6.25;;;2.70;;
37205;SDS011;23099;42.636;23.198;2023-08-30T12:03:19;7.82;;;3.10;;
37205;SDS011;23099;42.636;23.198;2023-08-30T12:05:46;6.60;;;3.15;;
37205;SDS011;23099;42.636;23.198;2023-08-30T12:08:18;8.13;;;2.97;;
37205;SDS011;23099;42.636;23.198;2023-08-30T12:10:46;9.27;;;3.20;;
37205;SDS011;23099;42.636;23.198;2023-08-30T12:13:22;7.55;;;3.15;;
37205;SDS011;23099;42.636;23.198;2023-08-30T12:15:49;9.65;;;3.03;;
37205;SDS011;23099;42.636;23.198;2023-08-30T12:18:16;9.75;;;3.10;;
37205;SDS011;23099;42.636;23.198;2023-08-30T12:20:53;7.78;;;3.00;;
37205;SDS011;23099;42.636;23.198;2023-08-30T12:23:20;9.23;;;3.33;;
37205;SDS011;23099;42.636;23.198;2023-08-30T12:25:58;7.78;;;2.80;;
37205;SDS011;23099;42.636;23.198;2023-08-30T12:28:26;7.50;;;3.30;;
37205;SDS011;23099;42.636;23.198;2023-08-30T12:30:53;6.75;;;2.60;;
37205;SDS011;23099;42.636;23.198;2023-08-30T12:33:20;7.57;;;2.67;;
37205;SDS011;23099;42.636;23.198;2023-08-30T12:35:47;7.88;;;3.53;;
37205;SDS011;23099;42.636;23.198;2023-08-30T12:38:14;10.55;;;2.83;;
37205;SDS011;23099;42.636;23.198;2023-08-30T12:40:43;7.13;;;2.95;;
37205;SDS011;23099;42.636;23.198;2023-08-30T12:43:11;8.63;;;2.58;;
37205;SDS011;23099;42.636;23.198;2023-08-30T12:45:38;6.88;;;2.92;;
37205;SDS011;23099;42.636;23.198;2023-08-30T12:48:06;8.77;;;2.20;;
37205;SDS011;23099;42.636;23.198;2023-08-30T12:50:33;10.47;;;2.40;;
37205;SDS011;23099;42.636;23.198;2023-08-30T12:53:00;8.30;;;2.78;;
37205;SDS011;23099;42.636;23.198;2023-08-30T12:55:27;5.72;;;2.50;;
37205;SDS011;23099;42.636;23.198;2023-08-30T12:57:54;6.88;;;2.38;;
37205;SDS011;23099;42.636;23.198;2023-08-30T13:00:22;7.85;;;2.67;;
37205;SDS011;23099;42.636;23.198;2023-08-30T13:02:49;7.97;;;2.72;;
37205;SDS011;23099;42.636;23.198;2023-08-30T13:05:16;7.47;;;2.10;;
37205;SDS011;23099;42.636;23.198;2023-08-30T13:07:43;9.07;;;2.88;;
37205;SDS011;23099;42.636;23.198;2023-08-30T13:10:10;8.30;;;2.37;;
37205;SDS011;23099;42.636;23.198;2023-08-30T13:12:37;7.05;;;2.47;;
37205;SDS011;23099;42.636;23.198;2023-08-30T13:15:05;6.70;;;2.87;;
37205;SDS011;23099;42.636;23.198;2023-08-30T13:20:00;8.45;;;2.67;;
37205;SDS011;23099;42.636;23.198;2023-08-30T13:22:28;8.77;;;3.55;;
37205;SDS011;23099;42.636;23.198;2023-08-30T13:24:54;6.43;;;2.47;;
37205;SDS011;23099;42.636;23.198;2023-08-30T13:27:21;10.23;;;2.80;;
37205;SDS011;23099;42.636;23.198;2023-08-30T13:29:48;55.08;;;5.07;;
37205;SDS011;23099;42.636;23.198;2023-08-30T13:32:15;6.80;;;2.07;;
37205;SDS011;23099;42.636;23.198;2023-08-30T13:34:43;6.78;;;2.53;;
37205;SDS011;23099;42.636;23.198;2023-08-30T13:37:11;8.48;;;3.13;;
37205;SDS011;23099;42.636;23.198;2023-08-30T13:39:38;9.23;;;2.65;;
37205;SDS011;23099;42.636;23.198;2023-08-30T13:42:05;7.05;;;2.35;;
37205;SDS011;23099;42.636;23.198;2023-08-30T13:44:32;7.65;;;2.38;;
37205;SDS011;23099;42.636;23.198;2023-08-30T13:47:01;5.40;;;2.17;;
37205;SDS011;23099;42.636;23.198;2023-08-30T13:49:28;8.68;;;2.42;;
37205;SDS011;23099;42.636;23.198;2023-08-30T13:51:56;6.30;;;1.90;;
37205;SDS011;23099;42.636;23.198;2023-08-30T13:54:23;7.18;;;2.08;;
37205;SDS011;23099;42.636;23.198;2023-08-30T13:56:50;5.38;;;1.88;;
37205;SDS011;23099;42.636;23.198;2023-08-30T13:59:17;10.07;;;1.95;;
37205;SDS011;23099;42.636;23.198;2023-08-30T14:01:43;7.32;;;2.17;;
37205;SDS011;23099;42.636;23.198;2023-08-30T14:04:10;5.38;;;1.50;;
37205;SDS011;23099;42.636;23.198;2023-08-30T14:06:37;8.55;;;1.98;;
37205;SDS011;23099;42.636;23.198;2023-08-30T14:09:05;7.55;;;2.08;;
37205;SDS011;23099;42.636;23.198;2023-08-30T14:11:33;5.00;;;1.60;;
37205;SDS011;23099;42.636;23.198;2023-08-30T14:14:00;6.40;;;1.83;;
37205;SDS011;23099;42.636;23.198;2023-08-30T14:16:27;5.22;;;1.70;;
37205;SDS011;23099;42.636;23.198;2023-08-30T14:18:54;5.25;;;1.50;;
37205;SDS011;23099;42.636;23.198;2023-08-30T14:21:24;6.07;;;1.98;;
37205;SDS011;23099;42.636;23.198;2023-08-30T14:23:51;5.78;;;1.60;;
37205;SDS011;23099;42.636;23.198;2023-08-30T14:26:19;7.82;;;1.40;;
37205;SDS011;23099;42.636;23.198;2023-08-30T14:31:12;7.70;;;2.03;;
37205;SDS011;23099;42.636;23.198;2023-08-30T14:33:42;7.97;;;1.90;;
37205;SDS011;23099;42.636;23.198;2023-08-30T14:36:10;4.85;;;1.30;;
37205;SDS011;23099;42.636;23.198;2023-08-30T14:38:37;6.90;;;1.93;;
37205;SDS011;23099;42.636;23.198;2023-08-30T14:41:04;9.02;;;1.40;;
37205;SDS011;23099;42.636;23.198;2023-08-30T14:43:32;5.93;;;1.30;;
37205;SDS011;23099;42.636;23.198;2023-08-30T14:45:59;4.78;;;1.08;;
37205;SDS011;23099;42.636;23.198;2023-08-30T14:48:26;3.83;;;1.10;;
37205;SDS011;23099;42.636;23.198;2023-08-30T14:50:52;4.03;;;1.13;;
37205;SDS011;23099;42.636;23.198;2023-08-30T14:53:19;6.95;;;1.30;;
37205;SDS011;23099;42.636;23.198;2023-08-30T14:55:46;5.43;;;1.15;;
37205;SDS011;23099;42.636;23.198;2023-08-30T14:58:12;5.40;;;1.40;;
37205;SDS011;23099;42.636;23.198;2023-08-30T15:00:40;5.53;;;1.20;;
37205;SDS011;23099;42.636;23.198;2023-08-30T15:03:07;7.88;;;1.15;;
37205;SDS011;23099;42.636;23.198;2023-08-30T15:05:34;6.78;;;1.02;;
37205;SDS011;23099;42.636;23.198;2023-08-30T15:08:01;5.55;;;1.00;;
37205;SDS011;23099;42.636;23.198;2023-08-30T15:10:27;5.20;;;1.13;;
37205;SDS011;23099;42.636;23.198;2023-08-30T15:12:54;5.20;;;0.90;;
37205;SDS011;23099;42.636;23.198;2023-08-30T15:15:21;5.40;;;0.90;;
37205;SDS011;23099;42.636;23.198;2023-08-30T15:17:49;5.03;;;1.00;;
37205;SDS011;23099;42.636;23.198;2023-08-30T15:22:42;4.40;;;1.17;;
37205;SDS011;23099;42.636;23.198;2023-08-30T15:25:09;12.98;;;1.80;;
37205;SDS011;23099;42.636;23.198;2023-08-30T15:27:35;8.68;;;1.55;;
37205;SDS011;23099;42.636;23.198;2023-08-30T15:30:02;6.72;;;1.63;;
37205;SDS011;23099;42.636;23.198;2023-08-30T15:32:29;8.73;;;1.38;;
37205;SDS011;23099;42.636;23.198;2023-08-30T15:34:58;6.13;;;1.23;;
37205;SDS011;23099;42.636;23.198;2023-08-30T15:39:57;8.40;;;1.63;;
37205;SDS011;23099;42.636;23.198;2023-08-30T15:42:28;8.05;;;1.90;;
37205;SDS011;23099;42.636;23.198;2023-08-30T15:44:55;5.75;;;1.70;;
37205;SDS011;23099;42.636;23.198;2023-08-30T15:47:22;4.60;;;1.02;;
37205;SDS011;23099;42.636;23.198;2023-08-30T15:49:48;6.55;;;1.38;;
37205;SDS011;23099;42.636;23.198;2023-08-30T15:52:16;8.07;;;1.52;;
37205;SDS011;23099;42.636;23.198;2023-08-30T15:57:10;5.80;;;1.30;;
37205;SDS011;23099;42.636;23.198;2023-08-30T15:59:36;7.45;;;1.52;;
37205;SDS011;23099;42.636;23.198;2023-08-30T16:02:03;5.45;;;1.50;;
37205;SDS011;23099;42.636;23.198;2023-08-30T16:04:30;6.35;;;1.25;;
37205;SDS011;23099;42.636;23.198;2023-08-30T16:06:57;6.95;;;1.77;;
37205;SDS011;23099;42.636;23.198;2023-08-30T16:09:25;7.65;;;1.33;;
37205;SDS011;23099;42.636;23.198;2023-08-30T16:14:18;6.35;;;1.83;;
37205;SDS011;23099;42.636;23.198;2023-08-30T16:16:44;5.97;;;1.30;;
37205;SDS011;23099;42.636;23.198;2023-08-30T16:19:11;6.63;;;1.20;;
37205;SDS011;23099;42.636;23.198;2023-08-30T16:21:38;6.65;;;1.40;;
37205;SDS011;23099;42.636;23.198;2023-08-30T16:24:05;10.57;;;1.50;;
37205;SDS011;23099;42.636;23.198;2023-08-30T16:26:33;4.85;;;1.20;;
37205;SDS011;23099;42.636;23.198;2023-08-30T16:31:29;6.57;;;1.43;;
37205;SDS011;23099;42.636;23.198;2023-08-30T16:33:56;5.55;;;1.40;;
37205;SDS011;23099;42.636;23.198;2023-08-30T16:36:23;5.93;;;1.13;;
37205;SDS011;23099;42.636;23.198;2023-08-30T16:38:50;9.10;;;1.10;;
37205;SDS011;23099;42.636;23.198;2023-08-30T16:41:16;6.22;;;1.27;;
37205;SDS011;23099;42.636;23.198;2023-08-30T16:43:44;6.97;;;1.45;;
37205;SDS011;23099;42.636;23.198;2023-08-30T16:48:37;8.50;;;1.42;;
37205;SDS011;23099;42.636;23.198;2023-08-30T16:51:04;5.95;;;1.25;;
37205;SDS011;23099;42.636;23.198;2023-08-30T16:53:31;7.35;;;1.20;;
37205;SDS011;23099;42.636;23.198;2023-08-30T16:55:59;7.97;;;1.20;;
37205;SDS011;23099;42.636;23.198;2023-08-30T16:58:26;4.85;;;1.20;;
37205;SDS011;23099;42.636;23.198;2023-08-30T17:00:54;5.18;;;1.20;;
37205;SDS011;23099;42.636;23.198;2023-08-30T17:03:21;8.32;;;1.23;;
37205;SDS011;23099;42.636;23.198;2023-08-30T17:05:47;7.53;;;1.48;;
37205;SDS011;23099;42.636;23.198;2023-08-30T17:08:14;6.50;;;1.20;;
37205;SDS011;23099;42.636;23.198;2023-08-30T17:10:41;5.35;;;1.10;;
37205;SDS011;23099;42.636;23.198;2023-08-30T17:13:08;7.40;;;1.35;;
37205;SDS011;23099;42.636;23.198;2023-08-30T17:15:35;5.77;;;1.17;;
37205;SDS011;23099;42.636;23.198;2023-08-30T17:18:04;4.80;;;1.17;;
37205;SDS011;23099;42.636;23.198;2023-08-30T17:20:31;4.70;;;1.25;;
37205;SDS011;23099;42.636;23.198;2023-08-30T17:22:57;7.72;;;1.25;;
37205;SDS011;23099;42.636;23.198;2023-08-30T17:25:24;7.75;;;1.45;;
37205;SDS011;23099;42.636;23.198;2023-08-30T17:27:51;6.57;;;1.10;;
37205;SDS011;23099;42.636;23.198;2023-08-30T17:30:17;9.15;;;1.25;;
37205;SDS011;23099;42.636;23.198;2023-08-30T17:32:45;8.05;;;1.05;;
37205;SDS011;23099;42.636;23.198;2023-08-30T17:35:13;5.88;;;1.20;;
37205;SDS011;23099;42.636;23.198;2023-08-30T17:40:06;5.38;;;0.93;;
37205;SDS011;23099;42.636;23.198;2023-08-30T17:42:34;6.00;;;1.08;;
37205;SDS011;23099;42.636;23.198;2023-08-30T17:45:01;5.70;;;1.17;;
37205;SDS011;23099;42.636;23.198;2023-08-30T17:47:28;4.97;;;1.37;;
37205;SDS011;23099;42.636;23.198;2023-08-30T17:49:55;4.13;;;1.00;;
37205;SDS011;23099;42.636;23.198;2023-08-30T17:52:23;5.65;;;1.10;;
37205;SDS011;23099;42.636;23.198;2023-08-30T17:54:50;5.80;;;0.90;;
37205;SDS011;23099;42.636;23.198;2023-08-30T17:57:17;5.78;;;1.13;;
37205;SDS011;23099;42.636;23.198;2023-08-30T17:59:44;6.47;;;1.38;;
37205;SDS011;23099;42.636;23.198;2023-08-30T18:02:10;8.90;;;1.40;;
37205;SDS011;23099;42.636;23.198;2023-08-30T18:04:37;5.63;;;1.10;;
37205;SDS011;23099;42.636;23.198;2023-08-30T18:07:04;5.18;;;1.00;;
37205;SDS011;23099;42.636;23.198;2023-08-30T18:09:32;7.80;;;1.55;;
37205;SDS011;23099;42.636;23.198;2023-08-30T18:11:59;6.05;;;1.02;;
37205;SDS011;23099;42.636;23.198;2023-08-30T18:14:28;5.97;;;1.20;;
37205;SDS011;23099;42.636;23.198;2023-08-30T18:16:55;5.97;;;1.10;;
37205;SDS011;23099;42.636;23.198;2023-08-30T18:19:22;5.72;;;1.40;;
37205;SDS011;23099;42.636;23.198;2023-08-30T18:21:48;7.85;;;1.10;;
37205;SDS011;23099;42.636;23.198;2023-08-30T18:24:15;7.82;;;1.35;;
37205;SDS011;23099;42.636;23.198;2023-08-30T18:26:45;5.70;;;1.40;;
37205;SDS011;23099;42.636;23.198;2023-08-30T18:29:12;7.72;;;1.45;;
37205;SDS011;23099;42.636;23.198;2023-08-30T18:31:39;6.23;;;1.20;;
37205;SDS011;23099;42.636;23.198;2023-08-30T18:34:06;4.72;;;1.27;;
37205;SDS011;23099;42.636;23.198;2023-08-30T18:36:34;7.03;;;1.10;;
37205;SDS011;23099;42.636;23.198;2023-08-30T18:39:00;5.28;;;1.30;;
37205;SDS011;23099;42.636;23.198;2023-08-30T18:41:29;4.68;;;1.10;;
37205;SDS011;23099;42.636;23.198;2023-08-30T18:43:57;9.93;;;1.40;;
37205;SDS011;23099;42.636;23.198;2023-08-30T18:46:24;5.00;;;1.17;;
37205;SDS011;23099;42.636;23.198;2023-08-30T18:48:52;5.18;;;1.10;;
37205;SDS011;23099;42.636;23.198;2023-08-30T18:51:18;6.50;;;1.00;;
37205;SDS011;23099;42.636;23.198;2023-08-30T18:53:46;7.50;;;1.57;;
37205;SDS011;23099;42.636;23.198;2023-08-30T18:56:13;6.15;;;1.10;;
37205;SDS011;23099;42.636;23.198;2023-08-30T18:58:40;5.90;;;1.60;;
37205;SDS011;23099;42.636;23.198;2023-08-30T19:01:09;6.88;;;1.40;;
37205;SDS011;23099;42.636;23.198;2023-08-30T19:03:37;4.97;;;1.10;;
37205;SDS011;23099;42.636;23.198;2023-08-30T19:06:04;4.50;;;1.40;;
37205;SDS011;23099;42.636;23.198;2023-08-30T19:08:32;6.57;;;1.17;;
37205;SDS011;23099;42.636;23.198;2023-08-30T19:10:59;7.32;;;1.38;;
37205;SDS011;23099;42.636;23.198;2023-08-30T19:13:26;6.40;;;1.30;;
37205;SDS011;23099;42.636;23.198;2023-08-30T19:15:52;6.47;;;1.20;;
37205;SDS011;23099;42.636;23.198;2023-08-30T19:18:21;5.50;;;1.20;;
37205;SDS011;23099;42.636;23.198;2023-08-30T19:20:53;8.32;;;1.30;;
37205;SDS011;23099;42.636;23.198;2023-08-30T19:23:20;5.72;;;1.50;;
37205;SDS011;23099;42.636;23.198;2023-08-30T19:25:48;5.90;;;1.13;;
37205;SDS011;23099;42.636;23.198;2023-08-30T19:28:14;7.88;;;1.58;;
37205;SDS011;23099;42.636;23.198;2023-08-30T19:30:42;5.63;;;1.13;;
37205;SDS011;23099;42.636;23.198;2023-08-30T19:33:09;4.55;;;1.15;;
37205;SDS011;23099;42.636;23.198;2023-08-30T19:35:37;9.93;;;1.40;;
37205;SDS011;23099;42.636;23.198;2023-08-30T19:38:04;5.97;;;1.23;;
37205;SDS011;23099;42.636;23.198;2023-08-30T19:40:31;7.10;;;1.45;;
37205;SDS011;23099;42.636;23.198;2023-08-30T19:42:58;6.50;;;1.13;;
37205;SDS011;23099;42.636;23.198;2023-08-30T19:45:25;4.35;;;1.20;;